sensor_id;sensor_type;location;lat;lon;timestamp;P1;durP1;ratioP1;P2;durP2;ratioP2
12480;SDS011;6305;48.398;11.762;2023-04-06T00:00:38;19.37;;;11.80;;
12480;SDS011;6305;48.398;11.762;2023-04-06T00:03:05;16.50;;;12.43;;
12480;SDS011;6305;48.398;11.762;2023-04-06T00:05:33;13.27;;;9.67;;
12480;SDS011;6305;48.398;11.762;2023-04-06T00:08:00;17.97;;;13.17;;
12480;SDS011;6305;48.398;11.762;2023-04-06T00:10:27;16.13;;;12.00;;
12480;SDS011;6305;48.398;11.762;2023-04-06T00:12:54;19.00;;;12.30;;
12480;SDS011;6305;48.398;11.762;2023-04-06T00:15:22;20.43;;;12.87;;
12480;SDS011;6305;48.398;11.762;2023-04-06T00:17:49;18.70;;;12.57;;
12480;SDS011;6305;48.398;11.762;2023-04-06T00:20:16;18.90;;;13.07;;
12480;SDS011;6305;48.398;11.762;2023-04-06T00:22:45;16.00;;;11.97;;
12480;SDS011;6305;48.398;11.762;2023-04-06T00:25:12;19.27;;;13.57;;
12480;SDS011;6305;48.398;11.762;2023-04-06T00:27:40;17.20;;;11.87;;
12480;SDS011;6305;48.398;11.762;2023-04-06T00:30:08;20.80;;;13.40;;
12480;SDS011;6305;48.398;11.762;2023-04-06T00:32:35;18.63;;;13.43;;
12480;SDS011;6305;48.398;11.762;2023-04-06T00:35:02;19.20;;;13.90;;
12480;SDS011;6305;48.398;11.762;2023-04-06T00:37:29;19.93;;;13.70;;
12480;SDS011;6305;48.398;11.762;2023-04-06T00:39:58;20.43;;;14.03;;
12480;SDS011;6305;48.398;11.762;2023-04-06T00:42:25;18.87;;;14.43;;
12480;SDS011;6305;48.398;11.762;2023-04-06T00:44:52;24.47;;;16.90;;
12480;SDS011;6305;48.398;11.762;2023-04-06T00:47:20;20.80;;;15.73;;
12480;SDS011;6305;48.398;11.762;2023-04-06T00:49:47;24.70;;;15.63;;
12480;SDS011;6305;48.398;11.762;2023-04-06T00:52:15;22.83;;;15.53;;
12480;SDS011;6305;48.398;11.762;2023-04-06T00:54:44;26.50;;;15.57;;
12480;SDS011;6305;48.398;11.762;2023-04-06T00:57:14;21.67;;;15.90;;
12480;SDS011;6305;48.398;11.762;2023-04-06T00:59:42;24.77;;;15.40;;
12480;SDS011;6305;48.398;11.762;2023-04-06T01:02:11;20.50;;;15.40;;
12480;SDS011;6305;48.398;11.762;2023-04-06T01:04:45;23.13;;;15.47;;
12480;SDS011;6305;48.398;11.762;2023-04-06T01:07:23;21.10;;;15.43;;
12480;SDS011;6305;48.398;11.762;2023-04-06T01:10:03;21.43;;;15.10;;
12480;SDS011;6305;48.398;11.762;2023-04-06T01:12:33;22.73;;;15.63;;
12480;SDS011;6305;48.398;11.762;2023-04-06T01:15:04;22.27;;;15.83;;
12480;SDS011;6305;48.398;11.762;2023-04-06T01:17:34;23.70;;;16.07;;
12480;SDS011;6305;48.398;11.762;2023-04-06T01:20:08;21.67;;;15.53;;
12480;SDS011;6305;48.398;11.762;2023-04-06T01:22:37;25.00;;;16.57;;
12480;SDS011;6305;48.398;11.762;2023-04-06T01:25:04;23.63;;;16.37;;
12480;SDS011;6305;48.398;11.762;2023-04-06T01:27:50;21.53;;;16.33;;
12480;SDS011;6305;48.398;11.762;2023-04-06T01:30:23;20.70;;;16.43;;
12480;SDS011;6305;48.398;11.762;2023-04-06T01:32:57;22.27;;;16.53;;
12480;SDS011;6305;48.398;11.762;2023-04-06T01:35:35;23.73;;;16.17;;
12480;SDS011;6305;48.398;11.762;2023-04-06T01:38:13;23.10;;;15.83;;
12480;SDS011;6305;48.398;11.762;2023-04-06T01:40:40;23.23;;;16.23;;
12480;SDS011;6305;48.398;11.762;2023-04-06T01:43:08;25.90;;;16.97;;
12480;SDS011;6305;48.398;11.762;2023-04-06T01:45:46;24.67;;;17.20;;
12480;SDS011;6305;48.398;11.762;2023-04-06T01:48:18;21.67;;;15.73;;
12480;SDS011;6305;48.398;11.762;2023-04-06T01:50:45;23.37;;;17.27;;
12480;SDS011;6305;48.398;11.762;2023-04-06T01:53:18;22.90;;;17.83;;
12480;SDS011;6305;48.398;11.762;2023-04-06T01:55:47;25.90;;;17.83;;
12480;SDS011;6305;48.398;11.762;2023-04-06T01:58:24;29.53;;;19.63;;
12480;SDS011;6305;48.398;11.762;2023-04-06T02:00:51;27.37;;;18.93;;
12480;SDS011;6305;48.398;11.762;2023-04-06T02:03:18;27.57;;;19.47;;
12480;SDS011;6305;48.398;11.762;2023-04-06T02:05:47;25.17;;;18.33;;
12480;SDS011;6305;48.398;11.762;2023-04-06T02:08:25;28.50;;;18.73;;
12480;SDS011;6305;48.398;11.762;2023-04-06T02:10:51;25.87;;;18.93;;
12480;SDS011;6305;48.398;11.762;2023-04-06T02:13:27;28.13;;;18.50;;
12480;SDS011;6305;48.398;11.762;2023-04-06T02:15:55;28.70;;;19.67;;
12480;SDS011;6305;48.398;11.762;2023-04-06T02:18:22;25.53;;;19.03;;
12480;SDS011;6305;48.398;11.762;2023-04-06T02:20:49;25.90;;;20.07;;
12480;SDS011;6305;48.398;11.762;2023-04-06T02:23:16;28.43;;;19.87;;
12480;SDS011;6305;48.398;11.762;2023-04-06T02:25:44;28.23;;;19.53;;
12480;SDS011;6305;48.398;11.762;2023-04-06T02:28:11;29.43;;;20.80;;
12480;SDS011;6305;48.398;11.762;2023-04-06T02:30:38;30.80;;;20.50;;
12480;SDS011;6305;48.398;11.762;2023-04-06T02:33:05;30.43;;;20.93;;
12480;SDS011;6305;48.398;11.762;2023-04-06T02:35:40;30.03;;;20.90;;
12480;SDS011;6305;48.398;11.762;2023-04-06T02:38:07;30.40;;;21.83;;
12480;SDS011;6305;48.398;11.762;2023-04-06T02:40:34;31.13;;;22.80;;
12480;SDS011;6305;48.398;11.762;2023-04-06T02:43:13;32.40;;;22.77;;
12480;SDS011;6305;48.398;11.762;2023-04-06T02:45:40;33.77;;;23.40;;
12480;SDS011;6305;48.398;11.762;2023-04-06T02:48:09;39.07;;;24.43;;
12480;SDS011;6305;48.398;11.762;2023-04-06T02:50:36;34.27;;;23.93;;
12480;SDS011;6305;48.398;11.762;2023-04-06T02:53:05;31.63;;;22.97;;
12480;SDS011;6305;48.398;11.762;2023-04-06T02:55:34;33.10;;;23.83;;
12480;SDS011;6305;48.398;11.762;2023-04-06T02:58:01;34.37;;;23.27;;
12480;SDS011;6305;48.398;11.762;2023-04-06T03:00:37;32.83;;;23.70;;
12480;SDS011;6305;48.398;11.762;2023-04-06T03:03:04;36.83;;;24.70;;
12480;SDS011;6305;48.398;11.762;2023-04-06T03:05:32;34.10;;;24.20;;
12480;SDS011;6305;48.398;11.762;2023-04-06T03:07:59;39.67;;;26.13;;
12480;SDS011;6305;48.398;11.762;2023-04-06T03:10:39;37.97;;;25.43;;
12480;SDS011;6305;48.398;11.762;2023-04-06T03:13:06;41.00;;;27.13;;
12480;SDS011;6305;48.398;11.762;2023-04-06T03:15:55;42.47;;;28.50;;
12480;SDS011;6305;48.398;11.762;2023-04-06T03:18:22;42.97;;;28.93;;
12480;SDS011;6305;48.398;11.762;2023-04-06T03:20:51;43.03;;;28.37;;
12480;SDS011;6305;48.398;11.762;2023-04-06T03:23:22;39.67;;;27.07;;
12480;SDS011;6305;48.398;11.762;2023-04-06T03:25:54;40.20;;;28.27;;
12480;SDS011;6305;48.398;11.762;2023-04-06T03:28:21;40.27;;;27.37;;
12480;SDS011;6305;48.398;11.762;2023-04-06T03:30:56;36.60;;;25.63;;
12480;SDS011;6305;48.398;11.762;2023-04-06T03:33:42;38.67;;;25.90;;
12480;SDS011;6305;48.398;11.762;2023-04-06T03:36:14;39.80;;;25.70;;
12480;SDS011;6305;48.398;11.762;2023-04-06T03:38:42;37.67;;;26.77;;
12480;SDS011;6305;48.398;11.762;2023-04-06T03:41:12;39.47;;;26.47;;
12480;SDS011;6305;48.398;11.762;2023-04-06T03:43:42;38.77;;;27.43;;
12480;SDS011;6305;48.398;11.762;2023-04-06T03:46:11;43.03;;;27.07;;
12480;SDS011;6305;48.398;11.762;2023-04-06T03:48:38;40.53;;;26.70;;
12480;SDS011;6305;48.398;11.762;2023-04-06T03:51:06;35.60;;;25.23;;
12480;SDS011;6305;48.398;11.762;2023-04-06T03:53:33;38.63;;;25.83;;
12480;SDS011;6305;48.398;11.762;2023-04-06T03:56:02;38.90;;;26.83;;
12480;SDS011;6305;48.398;11.762;2023-04-06T03:58:29;41.03;;;26.97;;
12480;SDS011;6305;48.398;11.762;2023-04-06T04:00:56;42.33;;;28.43;;
12480;SDS011;6305;48.398;11.762;2023-04-06T04:03:24;44.00;;;28.57;;
12480;SDS011;6305;48.398;11.762;2023-04-06T04:05:52;43.23;;;27.83;;
12480;SDS011;6305;48.398;11.762;2023-04-06T04:08:20;40.07;;;28.13;;
12480;SDS011;6305;48.398;11.762;2023-04-06T04:10:47;41.83;;;27.87;;
12480;SDS011;6305;48.398;11.762;2023-04-06T04:13:14;45.50;;;29.17;;
12480;SDS011;6305;48.398;11.762;2023-04-06T04:15:45;41.37;;;28.03;;
12480;SDS011;6305;48.398;11.762;2023-04-06T04:18:12;46.83;;;30.93;;
12480;SDS011;6305;48.398;11.762;2023-04-06T04:20:41;43.43;;;29.80;;
12480;SDS011;6305;48.398;11.762;2023-04-06T04:23:09;41.10;;;28.47;;
12480;SDS011;6305;48.398;11.762;2023-04-06T04:25:36;44.23;;;29.90;;
12480;SDS011;6305;48.398;11.762;2023-04-06T04:28:03;45.43;;;31.70;;
12480;SDS011;6305;48.398;11.762;2023-04-06T04:30:31;49.73;;;32.20;;
12480;SDS011;6305;48.398;11.762;2023-04-06T04:32:58;51.33;;;32.80;;
12480;SDS011;6305;48.398;11.762;2023-04-06T04:35:26;62.87;;;37.80;;
12480;SDS011;6305;48.398;11.762;2023-04-06T04:37:55;55.03;;;37.17;;
12480;SDS011;6305;48.398;11.762;2023-04-06T04:40:22;56.40;;;37.03;;
12480;SDS011;6305;48.398;11.762;2023-04-06T04:43:01;56.80;;;36.30;;
12480;SDS011;6305;48.398;11.762;2023-04-06T04:45:32;57.53;;;36.87;;
12480;SDS011;6305;48.398;11.762;2023-04-06T04:48:05;55.90;;;36.10;;
12480;SDS011;6305;48.398;11.762;2023-04-06T04:50:45;49.27;;;34.30;;
12480;SDS011;6305;48.398;11.762;2023-04-06T04:53:15;50.70;;;33.60;;
12480;SDS011;6305;48.398;11.762;2023-04-06T04:55:44;48.10;;;32.77;;
12480;SDS011;6305;48.398;11.762;2023-04-06T04:58:12;51.77;;;33.37;;
12480;SDS011;6305;48.398;11.762;2023-04-06T05:00:48;51.60;;;32.70;;
12480;SDS011;6305;48.398;11.762;2023-04-06T05:03:17;47.80;;;32.43;;
12480;SDS011;6305;48.398;11.762;2023-04-06T05:05:54;52.23;;;33.03;;
12480;SDS011;6305;48.398;11.762;2023-04-06T05:08:25;45.10;;;30.57;;
12480;SDS011;6305;48.398;11.762;2023-04-06T05:10:52;48.13;;;30.47;;
12480;SDS011;6305;48.398;11.762;2023-04-06T05:13:20;47.33;;;30.70;;
12480;SDS011;6305;48.398;11.762;2023-04-06T05:15:49;44.90;;;29.60;;
12480;SDS011;6305;48.398;11.762;2023-04-06T05:18:22;44.47;;;28.20;;
12480;SDS011;6305;48.398;11.762;2023-04-06T05:20:49;44.30;;;29.77;;
12480;SDS011;6305;48.398;11.762;2023-04-06T05:23:20;45.17;;;29.53;;
12480;SDS011;6305;48.398;11.762;2023-04-06T05:25:49;41.53;;;28.47;;
12480;SDS011;6305;48.398;11.762;2023-04-06T05:28:20;42.57;;;29.17;;
12480;SDS011;6305;48.398;11.762;2023-04-06T05:30:47;43.67;;;28.93;;
12480;SDS011;6305;48.398;11.762;2023-04-06T05:33:14;43.23;;;27.97;;
12480;SDS011;6305;48.398;11.762;2023-04-06T05:35:55;39.30;;;26.20;;
12480;SDS011;6305;48.398;11.762;2023-04-06T05:38:22;38.40;;;25.87;;
12480;SDS011;6305;48.398;11.762;2023-04-06T05:40:53;40.73;;;26.30;;
12480;SDS011;6305;48.398;11.762;2023-04-06T05:43:23;40.77;;;26.87;;
12480;SDS011;6305;48.398;11.762;2023-04-06T05:45:54;34.37;;;24.57;;
12480;SDS011;6305;48.398;11.762;2023-04-06T05:48:20;31.93;;;21.87;;
12480;SDS011;6305;48.398;11.762;2023-04-06T05:50:48;33.53;;;20.93;;
12480;SDS011;6305;48.398;11.762;2023-04-06T05:53:23;26.10;;;18.30;;
12480;SDS011;6305;48.398;11.762;2023-04-06T05:55:55;24.63;;;17.03;;
12480;SDS011;6305;48.398;11.762;2023-04-06T05:58:22;19.70;;;14.00;;
12480;SDS011;6305;48.398;11.762;2023-04-06T06:00:56;20.00;;;13.60;;
12480;SDS011;6305;48.398;11.762;2023-04-06T06:03:23;16.67;;;11.85;;
12480;SDS011;6305;48.398;11.762;2023-04-06T06:05:58;17.90;;;10.88;;
12480;SDS011;6305;48.398;11.762;2023-04-06T06:08:29;12.13;;;9.43;;
12480;SDS011;6305;48.398;11.762;2023-04-06T06:11:00;13.55;;;9.38;;
12480;SDS011;6305;48.398;11.762;2023-04-06T06:13:29;12.27;;;8.90;;
12480;SDS011;6305;48.398;11.762;2023-04-06T06:15:56;12.93;;;8.70;;
12480;SDS011;6305;48.398;11.762;2023-04-06T06:18:25;15.15;;;8.60;;
12480;SDS011;6305;48.398;11.762;2023-04-06T06:20:53;12.48;;;8.80;;
12480;SDS011;6305;48.398;11.762;2023-04-06T06:23:20;12.95;;;8.00;;
12480;SDS011;6305;48.398;11.762;2023-04-06T06:25:48;9.68;;;7.85;;
12480;SDS011;6305;48.398;11.762;2023-04-06T06:28:16;9.52;;;7.93;;
12480;SDS011;6305;48.398;11.762;2023-04-06T06:30:43;9.93;;;7.45;;
12480;SDS011;6305;48.398;11.762;2023-04-06T06:33:14;10.80;;;7.10;;
12480;SDS011;6305;48.398;11.762;2023-04-06T06:35:42;10.38;;;7.88;;
12480;SDS011;6305;48.398;11.762;2023-04-06T06:38:10;8.15;;;7.13;;
12480;SDS011;6305;48.398;11.762;2023-04-06T06:40:37;8.68;;;7.10;;
12480;SDS011;6305;48.398;11.762;2023-04-06T06:43:04;7.47;;;6.78;;
12480;SDS011;6305;48.398;11.762;2023-04-06T06:46:08;9.32;;;7.10;;
12480;SDS011;6305;48.398;11.762;2023-04-06T06:48:35;9.13;;;6.80;;
12480;SDS011;6305;48.398;11.762;2023-04-06T06:51:03;7.65;;;6.38;;
12480;SDS011;6305;48.398;11.762;2023-04-06T06:53:30;10.10;;;7.07;;
12480;SDS011;6305;48.398;11.762;2023-04-06T06:55:57;10.25;;;6.95;;
12480;SDS011;6305;48.398;11.762;2023-04-06T06:58:25;7.28;;;6.32;;
12480;SDS011;6305;48.398;11.762;2023-04-06T07:00:55;8.68;;;6.43;;
12480;SDS011;6305;48.398;11.762;2023-04-06T07:03:23;7.85;;;6.72;;
12480;SDS011;6305;48.398;11.762;2023-04-06T07:05:51;7.30;;;5.75;;
12480;SDS011;6305;48.398;11.762;2023-04-06T07:08:19;11.60;;;6.72;;
12480;SDS011;6305;48.398;11.762;2023-04-06T07:10:47;7.25;;;6.55;;
12480;SDS011;6305;48.398;11.762;2023-04-06T07:13:15;8.65;;;6.38;;
12480;SDS011;6305;48.398;11.762;2023-04-06T07:15:47;9.63;;;6.47;;
12480;SDS011;6305;48.398;11.762;2023-04-06T07:18:15;7.57;;;5.88;;
12480;SDS011;6305;48.398;11.762;2023-04-06T07:20:43;10.25;;;6.00;;
12480;SDS011;6305;48.398;11.762;2023-04-06T07:23:10;7.30;;;6.30;;
12480;SDS011;6305;48.398;11.762;2023-04-06T07:25:38;10.82;;;6.22;;
12480;SDS011;6305;48.398;11.762;2023-04-06T07:28:05;8.05;;;6.32;;
12480;SDS011;6305;48.398;11.762;2023-04-06T07:30:33;7.68;;;6.47;;
12480;SDS011;6305;48.398;11.762;2023-04-06T07:33:00;8.35;;;6.47;;
12480;SDS011;6305;48.398;11.762;2023-04-06T07:35:28;7.97;;;6.35;;
12480;SDS011;6305;48.398;11.762;2023-04-06T07:37:58;9.27;;;6.20;;
12480;SDS011;6305;48.398;11.762;2023-04-06T07:40:25;6.50;;;5.80;;
12480;SDS011;6305;48.398;11.762;2023-04-06T07:42:53;7.28;;;6.22;;
12480;SDS011;6305;48.398;11.762;2023-04-06T07:45:20;7.20;;;6.38;;
12480;SDS011;6305;48.398;11.762;2023-04-06T07:47:47;6.63;;;5.80;;
12480;SDS011;6305;48.398;11.762;2023-04-06T07:50:15;8.30;;;6.95;;
12480;SDS011;6305;48.398;11.762;2023-04-06T07:52:42;7.30;;;6.60;;
12480;SDS011;6305;48.398;11.762;2023-04-06T07:55:10;7.15;;;5.90;;
12480;SDS011;6305;48.398;11.762;2023-04-06T07:57:37;8.10;;;6.97;;
12480;SDS011;6305;48.398;11.762;2023-04-06T08:00:05;7.72;;;7.00;;
12480;SDS011;6305;48.398;11.762;2023-04-06T08:02:37;7.15;;;6.18;;
12480;SDS011;6305;48.398;11.762;2023-04-06T08:05:04;7.43;;;6.68;;
12480;SDS011;6305;48.398;11.762;2023-04-06T08:07:32;9.10;;;6.78;;
12480;SDS011;6305;48.398;11.762;2023-04-06T08:09:59;9.27;;;7.57;;
12480;SDS011;6305;48.398;11.762;2023-04-06T08:12:27;9.95;;;7.25;;
12480;SDS011;6305;48.398;11.762;2023-04-06T08:14:54;9.55;;;8.55;;
12480;SDS011;6305;48.398;11.762;2023-04-06T08:17:22;11.13;;;8.68;;
12480;SDS011;6305;48.398;11.762;2023-04-06T08:19:48;9.35;;;8.38;;
12480;SDS011;6305;48.398;11.762;2023-04-06T08:22:15;7.18;;;6.47;;
12480;SDS011;6305;48.398;11.762;2023-04-06T08:24:42;8.05;;;6.90;;
12480;SDS011;6305;48.398;11.762;2023-04-06T08:27:09;8.07;;;6.63;;
12480;SDS011;6305;48.398;11.762;2023-04-06T08:29:38;7.30;;;6.60;;
12480;SDS011;6305;48.398;11.762;2023-04-06T08:32:05;7.28;;;6.53;;
12480;SDS011;6305;48.398;11.762;2023-04-06T08:34:32;7.43;;;6.40;;
12480;SDS011;6305;48.398;11.762;2023-04-06T08:36:58;6.97;;;6.28;;
12480;SDS011;6305;48.398;11.762;2023-04-06T08:39:26;8.60;;;6.38;;
12480;SDS011;6305;48.398;11.762;2023-04-06T08:41:55;8.43;;;6.68;;
12480;SDS011;6305;48.398;11.762;2023-04-06T08:44:25;7.47;;;6.00;;
12480;SDS011;6305;48.398;11.762;2023-04-06T08:46:53;6.80;;;5.75;;
12480;SDS011;6305;48.398;11.762;2023-04-06T08:49:20;6.93;;;5.82;;
12480;SDS011;6305;48.398;11.762;2023-04-06T08:51:48;8.43;;;6.80;;
12480;SDS011;6305;48.398;11.762;2023-04-06T08:54:15;7.00;;;5.57;;
12480;SDS011;6305;48.398;11.762;2023-04-06T08:56:42;6.43;;;5.88;;
12480;SDS011;6305;48.398;11.762;2023-04-06T08:59:10;7.35;;;5.93;;
12480;SDS011;6305;48.398;11.762;2023-04-06T09:01:38;6.65;;;5.93;;
12480;SDS011;6305;48.398;11.762;2023-04-06T09:04:12;7.47;;;5.82;;
12480;SDS011;6305;48.398;11.762;2023-04-06T09:06:39;8.45;;;6.35;;
12480;SDS011;6305;48.398;11.762;2023-04-06T09:09:06;6.88;;;6.00;;
12480;SDS011;6305;48.398;11.762;2023-04-06T09:11:46;7.32;;;5.68;;
12480;SDS011;6305;48.398;11.762;2023-04-06T09:14:14;7.85;;;6.05;;
12480;SDS011;6305;48.398;11.762;2023-04-06T09:16:42;7.15;;;6.15;;
12480;SDS011;6305;48.398;11.762;2023-04-06T09:19:13;6.68;;;5.95;;
12480;SDS011;6305;48.398;11.762;2023-04-06T09:21:40;7.20;;;6.18;;
12480;SDS011;6305;48.398;11.762;2023-04-06T09:24:07;10.25;;;6.00;;
12480;SDS011;6305;48.398;11.762;2023-04-06T09:26:43;7.25;;;6.55;;
12480;SDS011;6305;48.398;11.762;2023-04-06T09:29:21;8.73;;;6.32;;
12480;SDS011;6305;48.398;11.762;2023-04-06T09:31:49;7.03;;;6.32;;
12480;SDS011;6305;48.398;11.762;2023-04-06T09:34:26;7.70;;;6.35;;
12480;SDS011;6305;48.398;11.762;2023-04-06T09:36:53;6.57;;;5.90;;
12480;SDS011;6305;48.398;11.762;2023-04-06T09:39:21;7.40;;;6.50;;
12480;SDS011;6305;48.398;11.762;2023-04-06T09:41:50;7.10;;;6.22;;
12480;SDS011;6305;48.398;11.762;2023-04-06T09:44:18;7.40;;;6.05;;
12480;SDS011;6305;48.398;11.762;2023-04-06T09:46:45;8.77;;;6.70;;
12480;SDS011;6305;48.398;11.762;2023-04-06T09:49:13;8.07;;;6.63;;
12480;SDS011;6305;48.398;11.762;2023-04-06T09:51:44;8.15;;;6.28;;
12480;SDS011;6305;48.398;11.762;2023-04-06T09:54:15;7.28;;;6.28;;
12480;SDS011;6305;48.398;11.762;2023-04-06T09:56:45;7.65;;;6.68;;
12480;SDS011;6305;48.398;11.762;2023-04-06T09:59:13;7.13;;;6.38;;
12480;SDS011;6305;48.398;11.762;2023-04-06T10:01:45;6.80;;;5.93;;
12480;SDS011;6305;48.398;11.762;2023-04-06T10:04:18;8.20;;;6.32;;
12480;SDS011;6305;48.398;11.762;2023-04-06T10:06:56;7.50;;;6.63;;
12480;SDS011;6305;48.398;11.762;2023-04-06T10:09:24;7.30;;;6.60;;
12480;SDS011;6305;48.398;11.762;2023-04-06T10:11:54;7.15;;;6.25;;
12480;SDS011;6305;48.398;11.762;2023-04-06T10:14:21;7.00;;;6.30;;
12480;SDS011;6305;48.398;11.762;2023-04-06T10:16:49;7.03;;;6.43;;
12480;SDS011;6305;48.398;11.762;2023-04-06T10:19:19;7.40;;;6.68;;
12480;SDS011;6305;48.398;11.762;2023-04-06T10:21:51;8.32;;;7.20;;
12480;SDS011;6305;48.398;11.762;2023-04-06T10:24:22;7.68;;;6.80;;
12480;SDS011;6305;48.398;11.762;2023-04-06T10:26:56;7.78;;;7.03;;
12480;SDS011;6305;48.398;11.762;2023-04-06T10:29:24;7.32;;;6.40;;
12480;SDS011;6305;48.398;11.762;2023-04-06T10:31:51;9.63;;;8.60;;
12480;SDS011;6305;48.398;11.762;2023-04-06T10:34:17;8.27;;;7.22;;
12480;SDS011;6305;48.398;11.762;2023-04-06T10:36:44;7.68;;;6.97;;
12480;SDS011;6305;48.398;11.762;2023-04-06T10:39:12;9.13;;;6.45;;
12480;SDS011;6305;48.398;11.762;2023-04-06T10:41:42;7.97;;;7.18;;
12480;SDS011;6305;48.398;11.762;2023-04-06T10:44:16;7.88;;;7.18;;
12480;SDS011;6305;48.398;11.762;2023-04-06T10:46:55;9.07;;;8.30;;
12480;SDS011;6305;48.398;11.762;2023-04-06T10:49:22;9.65;;;8.60;;
12480;SDS011;6305;48.398;11.762;2023-04-06T10:51:51;8.98;;;8.13;;
12480;SDS011;6305;48.398;11.762;2023-04-06T10:54:20;9.25;;;8.35;;
12480;SDS011;6305;48.398;11.762;2023-04-06T10:56:49;8.23;;;7.45;;
12480;SDS011;6305;48.398;11.762;2023-04-06T10:59:18;8.45;;;7.65;;
12480;SDS011;6305;48.398;11.762;2023-04-06T11:01:46;8.07;;;7.28;;
12480;SDS011;6305;48.398;11.762;2023-04-06T11:04:15;7.90;;;7.20;;
12480;SDS011;6305;48.398;11.762;2023-04-06T11:06:45;8.30;;;7.50;;
12480;SDS011;6305;48.398;11.762;2023-04-06T11:09:22;7.35;;;6.65;;
12480;SDS011;6305;48.398;11.762;2023-04-06T11:11:53;8.45;;;7.32;;
12480;SDS011;6305;48.398;11.762;2023-04-06T11:14:20;8.18;;;7.38;;
12480;SDS011;6305;48.398;11.762;2023-04-06T11:16:47;8.00;;;7.20;;
12480;SDS011;6305;48.398;11.762;2023-04-06T11:19:15;9.07;;;7.25;;
12480;SDS011;6305;48.398;11.762;2023-04-06T11:21:43;11.52;;;7.97;;
12480;SDS011;6305;48.398;11.762;2023-04-06T11:24:13;8.85;;;7.95;;
12480;SDS011;6305;48.398;11.762;2023-04-06T11:26:42;8.20;;;7.50;;
12480;SDS011;6305;48.398;11.762;2023-04-06T11:29:12;8.45;;;7.45;;
12480;SDS011;6305;48.398;11.762;2023-04-06T11:31:40;7.70;;;7.03;;
12480;SDS011;6305;48.398;11.762;2023-04-06T11:34:12;8.10;;;7.30;;
12480;SDS011;6305;48.398;11.762;2023-04-06T11:36:40;7.63;;;6.93;;
12480;SDS011;6305;48.398;11.762;2023-04-06T11:39:08;7.90;;;7.20;;
12480;SDS011;6305;48.398;11.762;2023-04-06T11:41:35;9.50;;;7.57;;
12480;SDS011;6305;48.398;11.762;2023-04-06T11:44:03;8.60;;;7.80;;
12480;SDS011;6305;48.398;11.762;2023-04-06T11:46:32;8.60;;;7.80;;
12480;SDS011;6305;48.398;11.762;2023-04-06T11:49:00;8.70;;;7.90;;
12480;SDS011;6305;48.398;11.762;2023-04-06T11:51:28;8.93;;;8.02;;
12480;SDS011;6305;48.398;11.762;2023-04-06T11:53:55;8.45;;;7.65;;
12480;SDS011;6305;48.398;11.762;2023-04-06T11:56:23;8.40;;;7.50;;
12480;SDS011;6305;48.398;11.762;2023-04-06T11:58:52;9.02;;;8.13;;
12480;SDS011;6305;48.398;11.762;2023-04-06T12:01:20;9.68;;;8.25;;
12480;SDS011;6305;48.398;11.762;2023-04-06T12:03:48;10.10;;;7.30;;
12480;SDS011;6305;48.398;11.762;2023-04-06T12:06:16;7.40;;;6.70;;
12480;SDS011;6305;48.398;11.762;2023-04-06T12:08:43;7.70;;;7.00;;
12480;SDS011;6305;48.398;11.762;2023-04-06T12:11:10;8.30;;;7.50;;
12480;SDS011;6305;48.398;11.762;2023-04-06T12:13:38;7.72;;;7.03;;
12480;SDS011;6305;48.398;11.762;2023-04-06T12:16:05;7.80;;;7.10;;
12480;SDS011;6305;48.398;11.762;2023-04-06T12:18:32;7.90;;;7.20;;
12480;SDS011;6305;48.398;11.762;2023-04-06T12:21:00;7.90;;;7.20;;
12480;SDS011;6305;48.398;11.762;2023-04-06T12:23:27;8.15;;;7.35;;
12480;SDS011;6305;48.398;11.762;2023-04-06T12:25:54;7.38;;;6.68;;
12480;SDS011;6305;48.398;11.762;2023-04-06T12:28:21;8.23;;;6.90;;
12480;SDS011;6305;48.398;11.762;2023-04-06T12:30:52;8.68;;;7.82;;
12480;SDS011;6305;48.398;11.762;2023-04-06T12:33:20;9.52;;;7.75;;
12480;SDS011;6305;48.398;11.762;2023-04-06T12:35:47;8.48;;;7.57;;
12480;SDS011;6305;48.398;11.762;2023-04-06T12:38:15;8.40;;;7.50;;
12480;SDS011;6305;48.398;11.762;2023-04-06T12:40:42;8.07;;;7.28;;
12480;SDS011;6305;48.398;11.762;2023-04-06T12:43:10;8.63;;;7.78;;
12480;SDS011;6305;48.398;11.762;2023-04-06T12:45:38;8.52;;;7.47;;
12480;SDS011;6305;48.398;11.762;2023-04-06T12:48:05;8.05;;;7.28;;
12480;SDS011;6305;48.398;11.762;2023-04-06T12:50:32;8.25;;;7.43;;
12480;SDS011;6305;48.398;11.762;2023-04-06T12:52:59;8.70;;;7.75;;
12480;SDS011;6305;48.398;11.762;2023-04-06T12:55:30;8.52;;;7.60;;
12480;SDS011;6305;48.398;11.762;2023-04-06T12:57:59;8.48;;;7.57;;
12480;SDS011;6305;48.398;11.762;2023-04-06T13:00:26;8.43;;;7.53;;
12480;SDS011;6305;48.398;11.762;2023-04-06T13:02:53;8.05;;;7.25;;
12480;SDS011;6305;48.398;11.762;2023-04-06T13:05:20;8.55;;;7.60;;
12480;SDS011;6305;48.398;11.762;2023-04-06T13:07:47;8.68;;;7.80;;
12480;SDS011;6305;48.398;11.762;2023-04-06T13:10:14;8.82;;;8.02;;
12480;SDS011;6305;48.398;11.762;2023-04-06T13:12:42;9.02;;;8.13;;
12480;SDS011;6305;48.398;11.762;2023-04-06T13:15:10;9.02;;;8.13;;
12480;SDS011;6305;48.398;11.762;2023-04-06T13:17:37;8.77;;;7.90;;
12480;SDS011;6305;48.398;11.762;2023-04-06T13:20:04;7.70;;;6.95;;
12480;SDS011;6305;48.398;11.762;2023-04-06T13:22:32;8.18;;;7.38;;
12480;SDS011;6305;48.398;11.762;2023-04-06T13:24:59;8.07;;;7.32;;
12480;SDS011;6305;48.398;11.762;2023-04-06T13:27:26;8.18;;;7.38;;
12480;SDS011;6305;48.398;11.762;2023-04-06T13:29:55;8.80;;;7.97;;
12480;SDS011;6305;48.398;11.762;2023-04-06T13:32:22;8.40;;;7.60;;
12480;SDS011;6305;48.398;11.762;2023-04-06T13:34:49;7.90;;;7.20;;
12480;SDS011;6305;48.398;11.762;2023-04-06T13:37:18;7.82;;;7.05;;
12480;SDS011;6305;48.398;11.762;2023-04-06T13:39:45;8.32;;;7.43;;
12480;SDS011;6305;48.398;11.762;2023-04-06T13:42:12;6.90;;;6.20;;
12480;SDS011;6305;48.398;11.762;2023-04-06T13:44:39;8.40;;;7.00;;
12480;SDS011;6305;48.398;11.762;2023-04-06T13:47:07;7.30;;;6.60;;
12480;SDS011;6305;48.398;11.762;2023-04-06T13:49:34;7.25;;;6.55;;
12480;SDS011;6305;48.398;11.762;2023-04-06T13:52:02;6.97;;;6.25;;
12480;SDS011;6305;48.398;11.762;2023-04-06T13:54:29;12.27;;;11.18;;
12480;SDS011;6305;48.398;11.762;2023-04-06T13:56:56;7.93;;;7.10;;
12480;SDS011;6305;48.398;11.762;2023-04-06T13:59:23;7.03;;;6.15;;
12480;SDS011;6305;48.398;11.762;2023-04-06T14:01:50;7.05;;;6.45;;
12480;SDS011;6305;48.398;11.762;2023-04-06T14:04:20;7.80;;;6.65;;
12480;SDS011;6305;48.398;11.762;2023-04-06T14:06:47;6.93;;;6.22;;
12480;SDS011;6305;48.398;11.762;2023-04-06T14:09:14;7.15;;;6.55;;
12480;SDS011;6305;48.398;11.762;2023-04-06T14:11:40;7.32;;;6.57;;
12480;SDS011;6305;48.398;11.762;2023-04-06T14:14:07;7.60;;;6.63;;
12480;SDS011;6305;48.398;11.762;2023-04-06T14:16:34;7.20;;;6.50;;
12480;SDS011;6305;48.398;11.762;2023-04-06T14:19:01;8.40;;;7.50;;
12480;SDS011;6305;48.398;11.762;2023-04-06T14:21:30;8.00;;;7.18;;
12480;SDS011;6305;48.398;11.762;2023-04-06T14:23:57;8.57;;;7.63;;
12480;SDS011;6305;48.398;11.762;2023-04-06T14:26:24;9.45;;;7.50;;
12480;SDS011;6305;48.398;11.762;2023-04-06T14:28:51;10.00;;;6.97;;
12480;SDS011;6305;48.398;11.762;2023-04-06T14:31:18;9.50;;;7.13;;
12480;SDS011;6305;48.398;11.762;2023-04-06T14:33:45;8.88;;;7.00;;
12480;SDS011;6305;48.398;11.762;2023-04-06T14:36:12;7.88;;;7.07;;
12480;SDS011;6305;48.398;11.762;2023-04-06T14:38:41;7.57;;;6.78;;
12480;SDS011;6305;48.398;11.762;2023-04-06T14:41:14;7.53;;;6.82;;
12480;SDS011;6305;48.398;11.762;2023-04-06T14:43:41;7.53;;;6.72;;
12480;SDS011;6305;48.398;11.762;2023-04-06T14:46:08;7.63;;;6.82;;